Aviation Digital Data Service (ADDS)

Output produced by METARs form (1305 UTC 15 July 2020)
found at http://www.aviationweather.gov/metar/data/
 
Forecast for: OPDG (DERA GHAZI , PK)
Text: TAF OPDG 150955Z 1512/1606 13010KT 4000 HZ SCT120 TN30/1601Z
Forecast period: 1200 UTC 15 July 2020 to 0600 UTC 16 July 2020
Forecast type: FROM: standard forecast or significant change
Winds: from the SE (130 degrees) at 12 MPH (10 knots; 5.1 m/s)
Visibility: 2.49 miles (4.01 km)
Ceiling: at least 12,000 feet AGL
Clouds: scattered clouds at 12000 feet AGL
Weather: HZ  (haze)
Text: PROB30
Forecast period: 1200 to 1600 UTC 15 July 2020
Forecast type: TEMPORARY: The following changes expected for less than half the time period
Winds: from the NW (310 degrees) at 23 MPH (20 knots; 10.3 m/s)
Visibility: 1.86 miles (2.99 km)
Ceiling: at least 12,000 feet AGL
Clouds: few clouds at 4000 feet AGL
scattered clouds at 12000 feet AGL
Weather: DRDU  (low drifting dust)